KBFF

Western Nebraska Regional / William B Heilig Field Airport

Scottsbluff, Nebraska, USA
METAR KBFF 181353Z AUTO 10009KT 10SM CLR 17/16 A3008 RMK AO2 SLP142 T01720161 $
Observed Flight Rules
Aug-18 @ 13:53 UTC (60 minutes ago) Visual Flight Rules
Wind Visibility Clouds
100° at 9 knots 10 miles
  • Clear skies
Temperatures Readings
Current 17°C / 63°F
Dewpoint 16°C / 61°F
Humidity 94%
Altimeter 30.08" Hg
Pressure 1014.2 hPa
Elevation 1203
METAR KBFF 181353Z AUTO 10009KT 10SM CLR 17/16 A3008 RMK AO2 SLP142 T01720161 $
Observed Flight Rules
Aug-18 @ 13:53 UTC
(60 minutes ago)
VFR
Wind Visibility
100° at 9 knots 10 miles
Clouds
  • Clear skies
Temperature Dewpoint
17°C / 63°F 16°C / 61°F
Humidity Altimeter Pressure
94% 30.08" Hg 1014.2 hPa